CSV2 weather

Ste-Agathe (AIM) Heliport
Ste-Agathe, Quebec, Canada

Public forecast

Using degrees Celsius for public forecast. Weather courtesy of forecast.io.

METAR (pilot weather report)

Closest report is Montreal International (Mirabel) Airport, 28.0 nm (51.9 km) SSE. Retrieved 2019/07/21 19:00 UTC (2 minutes ago):

CYMX 211900Z 28008KT 240V330 45SM SCT050 SCT120 28/17 A2971 RMK CU3AC1 SLP062 DENSITY ALT 2100FT

TAF (pilot weather forecast)

Closest forecast is Montreal International (Mirabel) Airport, 28.0 nm (51.9 km) SSE. Retrieved 2019/07/21 18:48 UTC (14 minutes ago):

TAF TAF CYMX 211744Z 2118/2218 28007KT P6SM SCT020 BKN070 TEMPO 2118/2124 P6SM -SHRA BKN020 OVC070 FM220000 31005KT P6SM FEW030 BKN100 FM220300 VRB03KT P6SM SCT080 FM221000 02005KT P6SM BKN060 OVC240 RMK NXT FCST BY 220000Z